Crescent City, California
Current Conditions -  °F | °C
As of 10:56 PM on Thursday 18 Dec 2014 (Local Time) from KCEC Reporting Station
Light Rain Light Rain  
Wind Chill: 51°   Ceiling: 4200
Heat Index: 51°   Visibility: 6mi
Dew Point: 49°   Wind: 3mph
Humidity: 92%   Direction: 120°ESE
Pressure: 29.99"   Gusts: NA
Location:  41.74°N, 124.16°W
Report Text: KCEC 190656Z AUTO 12003KT 6SM -RA BR FEW016 OVC042 11/09 A2999 RMK AO2 SLP158 P0019 T01060094 $
Loading
Personal Weather Stations






























Interactive Weather Map New forecast layout! Learn more

10-Day Weather Forecast

Advertisements
Track Severe Weather on mobile